createdAt,value
2023-10-20T00:01:12.226Z,17.00
2023-10-20T00:09:19.484Z,17.00
2023-10-20T00:17:27.739Z,17.00
2023-10-20T00:25:33.393Z,16.90
2023-10-20T00:33:41.500Z,16.30
2023-10-20T00:41:47.057Z,16.40
2023-10-20T00:49:55.329Z,16.60
2023-10-20T00:58:02.001Z,16.70
2023-10-20T01:06:10.234Z,16.70
2023-10-20T01:14:15.815Z,17.00
2023-10-20T01:22:24.084Z,17.10
2023-10-20T01:30:32.931Z,17.50
2023-10-20T01:38:38.489Z,17.50
2023-10-20T01:46:51.078Z,18.00
2023-10-20T01:54:56.752Z,18.10
2023-10-20T02:03:05.488Z,18.30
2023-10-20T02:11:11.129Z,18.40
2023-10-20T02:19:19.386Z,18.70
2023-10-20T02:27:25.915Z,18.80
2023-10-20T02:35:34.074Z,19.00
2023-10-20T02:43:39.543Z,19.00
2023-10-20T02:51:48.341Z,19.00
2023-10-20T02:59:54.208Z,19.00
2023-10-20T03:08:03.114Z,19.10
2023-10-20T03:16:09.637Z,19.00
2023-10-20T03:24:18.210Z,19.00
2023-10-20T03:32:23.864Z,19.10
2023-10-20T03:40:37.968Z,19.00
2023-10-20T03:48:43.914Z,19.00
2023-10-20T03:56:51.949Z,18.80
2023-10-20T04:04:58.209Z,19.00
2023-10-20T04:13:06.431Z,19.10
2023-10-20T04:21:13.291Z,19.10
2023-10-20T04:29:35.717Z,19.00
2023-10-20T04:37:53.615Z,18.90
2023-10-20T04:46:14.910Z,19.00
2023-10-20T04:54:25.167Z,19.20
2023-10-20T05:02:41.744Z,19.40
2023-10-20T05:10:47.434Z,19.40
2023-10-20T05:18:57.132Z,19.40
2023-10-20T05:27:02.611Z,19.50
2023-10-20T05:35:12.291Z,19.70
2023-10-20T05:43:18.582Z,20.20
2023-10-20T05:51:26.644Z,20.50
2023-10-20T05:59:32.198Z,20.60
2023-10-20T06:07:40.295Z,20.80
2023-10-20T06:15:46.178Z,21.00
2023-10-20T06:23:54.622Z,21.10
2023-10-20T06:32:11.266Z,21.10
2023-10-20T06:40:22.214Z,21.10
2023-10-20T06:48:27.995Z,21.40
2023-10-20T06:56:36.232Z,21.50
2023-10-20T07:04:42.518Z,21.40
2023-10-20T07:12:50.597Z,21.60
2023-10-20T07:20:58.036Z,22.00
2023-10-20T07:29:07.566Z,22.40
2023-10-20T07:37:13.485Z,22.90
2023-10-20T07:45:21.881Z,23.00
2023-10-20T07:53:27.539Z,23.10
2023-10-20T08:01:36.522Z,23.20
2023-10-20T08:09:42.129Z,23.10
2023-10-20T08:17:51.125Z,23.10
2023-10-20T08:25:56.789Z,23.20
2023-10-20T08:34:04.954Z,23.40
2023-10-20T08:42:20.430Z,23.70
2023-10-20T08:50:30.876Z,24.10
2023-10-20T08:58:36.779Z,24.50
2023-10-20T09:06:45.285Z,25.30
2023-10-20T09:14:51.281Z,28.30
2023-10-20T09:23:00.096Z,28.60
2023-10-20T09:31:06.529Z,27.70
2023-10-20T09:39:18.341Z,26.80
2023-10-20T09:47:31.459Z,26.50
2023-10-20T09:55:39.915Z,26.20
2023-10-20T10:03:52.182Z,25.90
2023-10-20T10:12:01.303Z,25.60
2023-10-20T10:20:09.217Z,25.70
2023-10-20T10:28:19.001Z,26.00
2023-10-20T10:36:25.267Z,26.00
2023-10-20T10:44:36.591Z,25.90
2023-10-20T10:52:42.331Z,26.00
2023-10-20T11:00:50.727Z,26.00
2023-10-20T11:08:56.358Z,26.00
2023-10-20T11:17:06.658Z,26.10
2023-10-20T11:25:21.535Z,26.30
2023-10-20T11:33:29.746Z,26.40
2023-10-20T11:41:35.575Z,26.10
2023-10-20T11:49:43.736Z,26.10
2023-10-20T11:57:49.274Z,25.40
2023-10-20T12:05:57.577Z,25.80
2023-10-20T12:14:03.295Z,25.80
2023-10-20T12:22:15.067Z,26.60
2023-10-20T12:30:21.585Z,27.00
2023-10-20T12:38:29.774Z,27.20
2023-10-20T12:46:35.406Z,26.50
2023-10-20T12:54:43.977Z,26.00
2023-10-20T13:02:51.616Z,25.70
2023-10-20T13:11:00.118Z,25.80
2023-10-20T13:19:05.619Z,25.80
2023-10-20T13:27:14.293Z,26.00
2023-10-20T13:35:20.461Z,25.60
2023-10-20T13:43:28.806Z,25.60
2023-10-20T13:51:34.848Z,25.90
2023-10-20T13:59:43.013Z,25.60
2023-10-20T14:07:48.997Z,25.30
2023-10-20T14:15:57.109Z,25.60
2023-10-20T14:24:04.319Z,25.40
2023-10-20T14:32:13.683Z,25.20
2023-10-20T14:40:19.489Z,25.10
2023-10-20T14:48:28.284Z,24.90
2023-10-20T14:56:34.022Z,24.90
2023-10-20T15:04:42.345Z,24.30
2023-10-20T15:12:47.950Z,24.40
2023-10-20T15:20:56.142Z,24.20
2023-10-20T15:29:01.733Z,24.50
2023-10-20T15:37:10.404Z,24.40
2023-10-20T15:45:17.767Z,24.30
2023-10-20T15:53:27.931Z,24.10
2023-10-20T16:01:35.771Z,23.90
2023-10-20T16:09:44.017Z,24.00
2023-10-20T16:17:51.566Z,23.90
2023-10-20T16:25:59.882Z,23.90
2023-10-20T16:34:05.363Z,23.90
2023-10-20T16:42:15.248Z,23.60
2023-10-20T16:50:20.832Z,23.80
2023-10-20T16:58:29.291Z,23.70
2023-10-20T17:06:35.792Z,23.70
2023-10-20T17:14:44.525Z,23.50
2023-10-20T17:22:53.795Z,23.50
2023-10-20T17:31:06.048Z,23.30
2023-10-20T17:39:14.776Z,23.40
2023-10-20T17:47:24.126Z,23.40
2023-10-20T17:55:29.818Z,23.50
2023-10-20T18:03:40.959Z,23.40
2023-10-20T18:11:47.045Z,23.50
2023-10-20T18:19:55.272Z,23.40
2023-10-20T18:28:02.161Z,23.40
2023-10-20T18:36:11.768Z,23.50
2023-10-20T18:44:17.347Z,23.50
2023-10-20T18:52:25.753Z,23.20
2023-10-20T19:00:33.992Z,23.20
2023-10-20T19:08:44.317Z,23.20
2023-10-20T19:16:51.825Z,23.00
2023-10-20T19:25:02.737Z,23.10
2023-10-20T19:33:10.646Z,23.00
2023-10-20T19:41:19.811Z,23.00
2023-10-20T19:49:25.308Z,23.30
2023-10-20T19:57:35.093Z,23.80
2023-10-20T20:05:43.348Z,23.90
2023-10-20T20:13:51.593Z,23.90
2023-10-20T20:21:57.208Z,23.80
2023-10-20T20:30:05.817Z,24.10
2023-10-20T20:38:11.411Z,23.90
2023-10-20T20:46:19.594Z,24.30
2023-10-20T20:54:25.213Z,24.50
2023-10-20T21:02:33.495Z,24.40
2023-10-20T21:10:39.377Z,24.60
2023-10-20T21:18:47.699Z,24.50
2023-10-20T21:26:56.414Z,24.50
2023-10-20T21:35:04.854Z,24.70
2023-10-20T21:43:10.387Z,24.50
2023-10-20T21:51:18.631Z,25.10
2023-10-20T21:59:24.248Z,25.40
2023-10-20T22:07:32.456Z,25.30
2023-10-20T22:15:37.968Z,25.30
2023-10-20T22:23:46.181Z,25.50
2023-10-20T22:31:51.884Z,25.40
2023-10-20T22:40:00.351Z,24.80
2023-10-20T22:48:06.541Z,25.00
2023-10-20T22:56:14.790Z,25.00
2023-10-20T23:04:21.322Z,24.50
2023-10-20T23:12:29.609Z,24.50
2023-10-20T23:20:35.077Z,24.20
2023-10-20T23:28:43.570Z,24.80
2023-10-20T23:36:49.115Z,25.00
2023-10-20T23:44:57.424Z,24.80
2023-10-20T23:53:03.405Z,24.90
